createdAt,value
2019-03-15T00:00:14.752Z,3.00
2019-03-15T00:02:47.446Z,3.10
2019-03-15T00:05:20.503Z,3.10
2019-03-15T00:07:52.888Z,3.20
2019-03-15T00:10:25.454Z,3.20
2019-03-15T00:12:57.986Z,3.20
2019-03-15T00:15:30.549Z,3.10
2019-03-15T00:18:03.658Z,3.10
2019-03-15T00:20:36.383Z,3.20
2019-03-15T00:23:09.672Z,3.20
2019-03-15T00:25:42.002Z,3.10
2019-03-15T00:28:15.237Z,3.10
2019-03-15T00:30:47.750Z,3.00
2019-03-15T00:33:20.757Z,2.90
2019-03-15T00:35:53.327Z,2.90
2019-03-15T00:38:26.191Z,2.90
2019-03-15T00:40:58.932Z,3.00
2019-03-15T00:43:31.309Z,3.00
2019-03-15T00:46:03.945Z,2.90
2019-03-15T00:48:36.772Z,2.90
2019-03-15T00:51:09.890Z,2.80
2019-03-15T00:53:42.412Z,2.80
2019-03-15T00:56:15.176Z,2.80
2019-03-15T00:58:47.333Z,2.70
2019-03-15T01:01:20.482Z,2.70
2019-03-15T01:03:52.857Z,2.70
2019-03-15T01:06:26.385Z,2.60
2019-03-15T01:08:58.671Z,2.60
2019-03-15T01:11:32.880Z,2.60
2019-03-15T01:14:05.779Z,2.60
2019-03-15T01:16:41.066Z,2.50
2019-03-15T01:19:13.648Z,2.50
2019-03-15T01:21:46.158Z,2.40
2019-03-15T01:24:18.798Z,2.30
2019-03-15T01:26:51.518Z,2.20
2019-03-15T01:29:24.153Z,2.10
2019-03-15T01:31:56.892Z,2.20
2019-03-15T01:34:29.473Z,2.10
2019-03-15T01:37:02.561Z,2.10
2019-03-15T01:39:35.609Z,2.20
2019-03-15T01:42:08.985Z,2.20
2019-03-15T01:44:42.230Z,2.30
2019-03-15T01:47:15.032Z,2.30
2019-03-15T01:49:47.680Z,2.40
2019-03-15T01:52:20.581Z,2.30
2019-03-15T01:54:53.087Z,2.30
2019-03-15T01:57:25.835Z,2.20
2019-03-15T01:59:58.559Z,2.30
2019-03-15T02:02:31.811Z,2.30
2019-03-15T02:05:04.443Z,2.30
2019-03-15T02:10:13.012Z,2.40
2019-03-15T02:12:46.022Z,2.40
2019-03-15T02:15:18.772Z,2.40
2019-03-15T02:17:51.482Z,2.40
2019-03-15T02:20:26.084Z,2.40
2019-03-15T02:22:58.426Z,2.40
2019-03-15T02:25:35.013Z,2.50
2019-03-15T02:28:07.384Z,2.40
2019-03-15T02:30:40.676Z,2.40
2019-03-15T02:33:13.184Z,2.40
2019-03-15T02:35:47.090Z,2.40
2019-03-15T02:38:20.539Z,2.40
2019-03-15T02:40:53.562Z,2.40
2019-03-15T02:43:26.210Z,2.50
2019-03-15T02:45:59.098Z,2.50
2019-03-15T02:48:31.730Z,2.50
2019-03-15T02:51:05.200Z,2.50
2019-03-15T02:53:38.076Z,2.60
2019-03-15T02:56:10.401Z,2.60
2019-03-15T02:58:43.161Z,2.60
2019-03-15T03:01:15.974Z,2.70
2019-03-15T03:03:48.585Z,2.70
2019-03-15T03:06:21.165Z,2.70
2019-03-15T03:08:53.727Z,2.70
2019-03-15T03:11:26.242Z,2.70
2019-03-15T03:13:58.802Z,2.70
2019-03-15T03:16:31.768Z,2.80
2019-03-15T03:19:04.138Z,2.80
2019-03-15T03:21:36.759Z,2.80
2019-03-15T03:24:09.819Z,2.80
2019-03-15T03:26:42.518Z,2.80
2019-03-15T03:29:15.481Z,2.80
2019-03-15T03:31:48.183Z,2.80
2019-03-15T03:34:20.750Z,2.80
2019-03-15T03:36:57.668Z,2.80
2019-03-15T03:39:27.253Z,2.80
2019-03-15T03:42:00.182Z,2.80
2019-03-15T03:44:33.108Z,2.80
2019-03-15T03:47:05.491Z,2.80
2019-03-15T03:49:37.994Z,2.80
2019-03-15T03:52:10.969Z,2.80
2019-03-15T03:54:43.407Z,2.80
2019-03-15T03:57:16.591Z,2.80
2019-03-15T03:59:49.050Z,2.90
2019-03-15T04:02:22.403Z,2.90
2019-03-15T04:13:30.760Z,3.00
2019-03-15T04:16:03.158Z,3.00
2019-03-15T04:18:35.956Z,3.00
2019-03-15T04:21:08.366Z,3.10
2019-03-15T04:23:41.888Z,3.20
2019-03-15T04:26:14.869Z,3.20
2019-03-15T04:28:47.653Z,3.10
2019-03-15T04:31:20.527Z,3.20
2019-03-15T04:33:53.257Z,3.10
2019-03-15T04:36:25.673Z,3.10
2019-03-15T04:38:58.507Z,3.10
2019-03-15T04:41:31.062Z,3.10
2019-03-15T04:44:03.418Z,3.00
2019-03-15T04:46:35.623Z,3.00
2019-03-15T04:49:08.077Z,3.00
2019-03-15T04:51:41.755Z,3.00
2019-03-15T04:54:14.200Z,3.00
2019-03-15T04:56:46.901Z,3.00
2019-03-15T04:59:20.290Z,3.10
2019-03-15T05:01:52.983Z,3.10
2019-03-15T05:04:25.683Z,3.10
2019-03-15T05:06:58.128Z,3.20
2019-03-15T05:09:31.071Z,3.20
2019-03-15T05:12:03.923Z,3.20
2019-03-15T05:14:37.352Z,3.20
2019-03-15T05:17:10.473Z,3.20
2019-03-15T05:19:43.127Z,3.20
2019-03-15T05:22:15.568Z,3.20
2019-03-15T05:24:48.321Z,3.10
2019-03-15T05:27:21.398Z,3.00
2019-03-15T05:29:54.080Z,3.00
2019-03-15T05:32:26.621Z,3.00
2019-03-15T05:34:59.007Z,3.00
2019-03-15T05:37:31.361Z,2.90
2019-03-15T05:40:04.100Z,2.80
2019-03-15T05:42:37.112Z,2.80
2019-03-15T05:45:10.853Z,2.90
2019-03-15T05:47:43.368Z,3.00
2019-03-15T05:50:15.960Z,3.10
2019-03-15T05:52:48.312Z,3.40
2019-03-15T05:55:21.131Z,3.60
2019-03-15T05:57:53.766Z,3.80
2019-03-15T06:00:26.213Z,3.90
2019-03-15T06:02:58.819Z,4.10
2019-03-15T06:05:31.323Z,4.10
2019-03-15T06:08:03.767Z,4.10
2019-03-15T06:10:36.715Z,4.10
2019-03-15T06:13:09.384Z,4.10
2019-03-15T06:15:42.201Z,4.20
2019-03-15T06:18:15.312Z,4.20
2019-03-15T06:23:37.496Z,4.00
2019-03-15T06:26:10.624Z,3.80
2019-03-15T06:28:43.367Z,3.80
2019-03-15T06:31:15.658Z,3.80
2019-03-15T06:33:48.321Z,3.90
2019-03-15T06:36:21.541Z,4.00
2019-03-15T06:38:55.206Z,3.90
2019-03-15T06:41:28.200Z,3.90
2019-03-15T06:44:01.094Z,4.00
2019-03-15T06:46:34.102Z,4.00
2019-03-15T06:49:07.187Z,3.80
2019-03-15T06:51:39.833Z,3.70
2019-03-15T06:54:12.202Z,3.60
2019-03-15T06:56:45.431Z,3.50
2019-03-15T06:59:17.981Z,3.50
2019-03-15T07:01:50.924Z,3.80
2019-03-15T07:04:23.140Z,3.90
2019-03-15T07:06:55.745Z,3.90
2019-03-15T07:09:30.749Z,4.10
2019-03-15T07:12:09.131Z,4.00
2019-03-15T07:14:36.327Z,3.90
2019-03-15T07:17:09.168Z,3.80
2019-03-15T07:19:41.563Z,3.70
2019-03-15T07:22:14.551Z,3.60
2019-03-15T07:24:47.047Z,3.40
2019-03-15T07:27:19.410Z,3.30
2019-03-15T07:29:51.896Z,3.30
2019-03-15T07:32:24.523Z,3.20
2019-03-15T07:34:57.241Z,3.10
2019-03-15T07:37:30.025Z,3.10
2019-03-15T07:40:02.836Z,3.10
2019-03-15T07:42:35.700Z,3.10
2019-03-15T07:45:08.269Z,3.10
2019-03-15T07:47:41.259Z,3.10
2019-03-15T07:50:14.441Z,3.00
2019-03-15T07:52:46.993Z,3.10
2019-03-15T07:55:19.495Z,3.10
2019-03-15T07:57:52.204Z,3.10
2019-03-15T08:00:25.397Z,3.10
2019-03-15T08:02:57.921Z,3.10
2019-03-15T08:05:30.732Z,3.10
2019-03-15T08:08:02.941Z,3.20
2019-03-15T08:10:35.821Z,3.20
2019-03-15T08:13:08.800Z,3.20
2019-03-15T08:15:41.354Z,3.30
2019-03-15T08:18:17.819Z,3.30
2019-03-15T08:20:50.609Z,3.30
2019-03-15T08:23:23.307Z,3.30
2019-03-15T08:25:56.287Z,3.20
2019-03-15T08:28:28.596Z,3.20
2019-03-15T08:31:01.241Z,3.20
2019-03-15T08:33:34.534Z,3.10
2019-03-15T08:36:07.077Z,3.20
2019-03-15T08:38:47.410Z,3.20
2019-03-15T08:41:13.808Z,3.10
2019-03-15T08:43:47.273Z,3.10
2019-03-15T08:46:20.228Z,3.10
2019-03-15T08:48:53.042Z,3.20
2019-03-15T08:51:25.950Z,3.20
2019-03-15T08:54:04.300Z,3.10
2019-03-15T08:56:36.999Z,3.00
2019-03-15T08:59:10.108Z,3.10
2019-03-15T09:01:42.323Z,3.20
2019-03-15T09:04:15.187Z,3.30
2019-03-15T09:06:47.718Z,3.40
2019-03-15T09:09:20.620Z,3.40
2019-03-15T09:11:53.475Z,3.50
2019-03-15T09:14:26.210Z,3.40
2019-03-15T09:16:58.778Z,3.40
2019-03-15T09:19:31.629Z,3.50
2019-03-15T09:22:04.100Z,3.40
2019-03-15T09:24:36.919Z,3.40
2019-03-15T09:27:10.702Z,3.30
2019-03-15T09:29:43.410Z,3.10
2019-03-15T09:32:16.191Z,3.10
2019-03-15T09:34:48.605Z,3.10
2019-03-15T09:37:21.243Z,3.10
2019-03-15T09:39:54.121Z,3.00
2019-03-15T09:42:26.434Z,3.10
2019-03-15T09:44:58.641Z,3.00
2019-03-15T09:47:31.029Z,2.90
2019-03-15T09:50:03.798Z,2.90
2019-03-15T09:52:36.201Z,2.70
2019-03-15T09:55:09.690Z,2.70
2019-03-15T09:57:42.782Z,2.70
2019-03-15T10:00:17.900Z,2.60
2019-03-15T10:02:50.595Z,2.50
2019-03-15T10:05:23.086Z,2.40
2019-03-15T10:07:55.630Z,2.30
2019-03-15T10:10:28.106Z,2.30
2019-03-15T10:13:05.782Z,2.30
2019-03-15T10:15:37.522Z,2.30
2019-03-15T10:18:10.222Z,2.20
2019-03-15T10:20:45.395Z,2.30
2019-03-15T10:23:16.181Z,2.30
2019-03-15T10:25:51.229Z,2.40
2019-03-15T10:28:23.028Z,2.40
2019-03-15T10:30:55.486Z,2.60
2019-03-15T10:33:27.927Z,2.60
2019-03-15T10:36:00.838Z,2.60
2019-03-15T10:38:33.019Z,2.60
2019-03-15T10:41:06.336Z,2.60
2019-03-15T10:43:38.771Z,2.70
2019-03-15T10:46:11.172Z,2.70
2019-03-15T10:48:43.428Z,2.70
2019-03-15T10:51:15.779Z,2.70
2019-03-15T10:53:48.378Z,2.70
2019-03-15T10:56:21.157Z,2.60
2019-03-15T10:58:53.622Z,2.60
2019-03-15T11:01:26.942Z,2.60
2019-03-15T11:03:59.501Z,2.60
2019-03-15T11:06:31.991Z,2.60
2019-03-15T11:09:05.151Z,2.60
2019-03-15T11:11:37.778Z,2.60
2019-03-15T11:14:10.416Z,2.60
2019-03-15T11:16:42.815Z,2.60
2019-03-15T11:19:15.844Z,2.70
2019-03-15T11:21:52.550Z,2.70
2019-03-15T11:24:24.930Z,2.60
2019-03-15T11:26:57.256Z,2.60
2019-03-15T11:29:29.574Z,2.60
2019-03-15T11:32:02.636Z,2.70
2019-03-15T11:34:35.136Z,2.70
2019-03-15T11:37:07.773Z,2.70
2019-03-15T11:39:40.718Z,2.70
2019-03-15T11:42:15.011Z,2.90
2019-03-15T11:44:47.495Z,3.20
2019-03-15T11:47:20.558Z,3.40
2019-03-15T11:49:53.061Z,3.60
2019-03-15T11:52:25.636Z,4.10
2019-03-15T11:54:57.794Z,4.60
2019-03-15T11:57:30.601Z,5.10
2019-03-15T12:00:03.054Z,5.40
2019-03-15T12:02:35.763Z,5.60
2019-03-15T12:05:08.900Z,5.60
2019-03-15T12:07:41.604Z,5.80
2019-03-15T12:10:15.433Z,5.80
2019-03-15T12:12:48.128Z,5.90
2019-03-15T12:15:20.676Z,5.90
2019-03-15T12:17:53.381Z,6.00
2019-03-15T12:20:25.837Z,6.20
2019-03-15T12:22:58.452Z,6.30
2019-03-15T12:25:31.511Z,6.60
2019-03-15T12:28:04.343Z,7.00
2019-03-15T12:30:37.027Z,7.20
2019-03-15T12:33:09.737Z,7.30
2019-03-15T12:35:42.290Z,7.40
2019-03-15T12:38:15.201Z,7.50
2019-03-15T12:40:48.165Z,7.50
2019-03-15T12:43:21.077Z,7.50
2019-03-15T12:45:53.525Z,7.30
2019-03-15T12:48:32.402Z,7.20
2019-03-15T12:51:05.030Z,7.00
2019-03-15T12:53:37.754Z,6.80
2019-03-15T12:56:12.375Z,6.80
2019-03-15T12:58:44.855Z,6.90
2019-03-15T13:01:17.742Z,7.10
2019-03-15T13:03:50.731Z,7.10
2019-03-15T13:06:23.080Z,7.40
2019-03-15T13:08:55.668Z,7.60
2019-03-15T13:11:28.127Z,7.80
2019-03-15T13:14:00.590Z,7.90
2019-03-15T13:16:33.137Z,7.90
2019-03-15T13:19:06.782Z,8.00
2019-03-15T13:21:39.433Z,8.00
2019-03-15T13:24:11.849Z,8.10
2019-03-15T13:26:44.623Z,8.10
2019-03-15T13:29:17.531Z,8.20
2019-03-15T13:31:50.506Z,8.20
2019-03-15T13:34:22.985Z,8.20
2019-03-15T13:36:55.434Z,8.20
2019-03-15T13:39:27.834Z,8.60
2019-03-15T13:42:00.691Z,9.20
2019-03-15T13:44:33.181Z,9.20
2019-03-15T13:47:06.190Z,9.10
2019-03-15T13:49:38.709Z,8.80
2019-03-15T13:52:11.245Z,8.50
2019-03-15T13:54:44.897Z,8.60
2019-03-15T13:57:21.392Z,8.50
2019-03-15T13:59:50.876Z,8.30
2019-03-15T14:02:23.561Z,8.20
2019-03-15T14:04:56.109Z,8.10
2019-03-15T14:07:29.020Z,8.00
2019-03-15T14:10:03.976Z,7.80
2019-03-15T14:12:35.646Z,7.80
2019-03-15T14:15:08.397Z,7.80
2019-03-15T14:17:40.874Z,7.80
2019-03-15T14:20:13.981Z,7.60
2019-03-15T14:22:46.220Z,7.50
2019-03-15T14:25:22.618Z,7.40
2019-03-15T14:27:55.969Z,7.20
2019-03-15T14:30:28.605Z,7.10
2019-03-15T14:33:01.313Z,7.00
2019-03-15T14:35:33.958Z,7.00
2019-03-15T14:38:06.641Z,7.00
2019-03-15T14:40:39.646Z,7.00
2019-03-15T14:43:12.565Z,7.00
2019-03-15T14:45:45.582Z,6.90
2019-03-15T14:48:18.223Z,6.80
2019-03-15T15:01:20.821Z,6.40
2019-03-15T15:03:53.581Z,6.50
2019-03-15T15:06:25.851Z,6.70
2019-03-15T15:08:58.455Z,6.80
2019-03-15T15:11:31.032Z,7.00
2019-03-15T15:14:03.691Z,7.00
2019-03-15T15:16:36.292Z,7.10
2019-03-15T15:19:08.725Z,7.20
2019-03-15T15:21:43.974Z,7.20
2019-03-15T15:24:20.765Z,7.20
2019-03-15T15:26:56.885Z,7.20
2019-03-15T15:29:30.086Z,7.30
2019-03-15T15:32:02.445Z,7.40
2019-03-15T15:34:35.294Z,7.50
2019-03-15T15:37:08.179Z,7.60
2019-03-15T15:39:41.061Z,7.90
2019-03-15T15:42:15.813Z,8.00
2019-03-15T15:44:48.441Z,8.20
2019-03-15T15:47:22.230Z,8.30
2019-03-15T15:49:57.815Z,8.40
2019-03-15T15:52:31.622Z,8.60
2019-03-15T15:55:04.880Z,8.90
2019-03-15T15:57:38.000Z,9.20
2019-03-15T16:00:12.279Z,9.30
2019-03-15T16:02:45.770Z,9.20
2019-03-15T16:05:18.484Z,9.30
2019-03-15T16:07:51.465Z,9.50
2019-03-15T16:10:24.145Z,9.60
2019-03-15T16:12:56.837Z,9.70
2019-03-15T16:15:29.402Z,9.80
2019-03-15T16:18:02.102Z,9.60
2019-03-15T16:20:34.557Z,9.70
2019-03-15T16:23:07.157Z,9.60
2019-03-15T16:25:39.710Z,9.60
2019-03-15T16:28:12.618Z,9.80
2019-03-15T16:30:45.202Z,9.90
2019-03-15T16:33:17.827Z,9.90
2019-03-15T16:35:51.309Z,9.30
2019-03-15T16:38:23.861Z,8.90
2019-03-15T16:40:57.612Z,9.20
2019-03-15T16:43:30.457Z,9.80
2019-03-15T16:46:02.972Z,10.60
2019-03-15T16:48:35.638Z,10.90
2019-03-15T16:51:19.009Z,11.00
2019-03-15T16:53:42.290Z,11.40
2019-03-15T16:56:14.911Z,11.90
2019-03-15T16:58:47.650Z,11.40
2019-03-15T17:01:20.515Z,11.20
2019-03-15T17:03:53.254Z,10.70
2019-03-15T17:06:26.057Z,10.30
2019-03-15T17:08:58.816Z,10.20
2019-03-15T17:11:31.415Z,10.10
2019-03-15T17:14:04.136Z,10.00
2019-03-15T17:16:36.928Z,10.00
2019-03-15T17:19:09.670Z,9.90
2019-03-15T17:21:42.378Z,9.80
2019-03-15T17:24:14.775Z,9.50
2019-03-15T17:26:47.197Z,9.30
2019-03-15T17:29:23.949Z,9.20
2019-03-15T17:31:56.834Z,9.30
2019-03-15T17:34:30.604Z,9.20
2019-03-15T17:37:06.880Z,9.30
2019-03-15T17:39:37.029Z,9.00
2019-03-15T17:42:09.390Z,8.70
2019-03-15T17:44:41.741Z,8.50
2019-03-15T17:47:14.499Z,8.40
2019-03-15T17:49:47.506Z,8.30
2019-03-15T17:52:20.473Z,8.20
2019-03-15T17:54:53.296Z,8.20
2019-03-15T17:57:26.255Z,8.40
2019-03-15T18:00:15.511Z,8.70
2019-03-15T18:02:48.634Z,8.80
2019-03-15T18:05:21.439Z,8.50
2019-03-15T18:07:54.098Z,8.50
2019-03-15T18:10:27.306Z,8.40
2019-03-15T18:13:00.406Z,8.20
2019-03-15T18:15:33.163Z,8.00
2019-03-15T18:18:05.271Z,7.90
2019-03-15T18:20:37.871Z,7.70
2019-03-15T18:23:10.861Z,7.60
2019-03-15T18:25:43.510Z,7.50
2019-03-15T18:28:15.878Z,7.50
2019-03-15T18:30:48.482Z,7.50
2019-03-15T18:33:21.025Z,7.60
2019-03-15T18:35:54.098Z,8.00
2019-03-15T18:38:26.635Z,8.20
2019-03-15T18:40:59.160Z,8.30
2019-03-15T18:43:31.584Z,8.40
2019-03-15T18:46:04.056Z,8.40
2019-03-15T18:48:52.827Z,8.60
2019-03-15T18:51:28.298Z,8.80
2019-03-15T18:54:16.698Z,9.00
2019-03-15T18:56:38.544Z,9.20
2019-03-15T18:59:11.631Z,9.10
2019-03-15T19:01:46.039Z,9.00
2019-03-15T19:04:20.203Z,8.90
2019-03-15T19:06:55.872Z,8.90
2019-03-15T19:09:30.715Z,9.10
2019-03-15T19:12:02.906Z,9.00
2019-03-15T19:14:37.670Z,9.00
2019-03-15T19:17:10.413Z,8.80
2019-03-15T19:19:43.050Z,8.70
2019-03-15T19:22:15.464Z,8.70
2019-03-15T19:24:48.451Z,8.60
2019-03-15T19:27:20.940Z,8.70
2019-03-15T19:29:54.247Z,8.50
2019-03-15T19:32:26.930Z,8.30
2019-03-15T19:35:00.672Z,8.20
2019-03-15T19:37:32.981Z,8.20
2019-03-15T19:40:06.430Z,8.10
2019-03-15T19:42:39.260Z,8.00
2019-03-15T19:45:13.817Z,7.90
2019-03-15T19:47:46.885Z,7.90
2019-03-15T19:50:19.656Z,7.90
2019-03-15T19:52:52.630Z,8.00
2019-03-15T19:55:25.577Z,7.80
2019-03-15T19:57:58.210Z,7.60
2019-03-15T20:00:30.715Z,7.40
2019-03-15T20:03:02.930Z,7.40
2019-03-15T20:05:35.723Z,7.40
2019-03-15T20:08:08.514Z,7.60
2019-03-15T20:10:41.055Z,7.80
2019-03-15T20:13:13.558Z,8.00
2019-03-15T20:15:45.975Z,8.00
2019-03-15T20:18:21.137Z,8.10
2019-03-15T20:20:52.901Z,8.20
2019-03-15T20:23:25.404Z,8.30
2019-03-15T20:25:57.840Z,8.30
2019-03-15T20:28:30.290Z,8.20
2019-03-15T20:31:02.836Z,8.20
2019-03-15T20:33:35.308Z,8.20
2019-03-15T20:36:07.758Z,8.20
2019-03-15T20:38:40.374Z,8.20
2019-03-15T20:41:13.222Z,8.20
2019-03-15T20:43:46.026Z,8.20
2019-03-15T20:46:18.856Z,8.20
2019-03-15T20:48:51.424Z,8.10
2019-03-15T20:51:24.719Z,8.10
2019-03-15T20:54:10.888Z,8.20
2019-03-15T20:56:43.218Z,8.20
2019-03-15T20:59:16.245Z,8.10
2019-03-15T21:01:49.230Z,8.10
2019-03-15T21:04:22.327Z,7.90
2019-03-15T21:06:54.765Z,7.80
2019-03-15T21:09:27.134Z,7.50
2019-03-15T21:12:00.217Z,7.30
2019-03-15T21:14:32.726Z,7.10
2019-03-15T21:17:05.393Z,7.00
2019-03-15T21:19:37.986Z,6.90
2019-03-15T21:22:10.921Z,6.80
2019-03-15T21:24:43.514Z,6.80
2019-03-15T21:27:15.988Z,6.70
2019-03-15T21:29:48.813Z,6.70
2019-03-15T21:32:21.484Z,6.70
2019-03-15T21:34:54.007Z,6.70
2019-03-15T21:37:29.617Z,6.60
2019-03-15T21:40:00.410Z,6.60
2019-03-15T21:42:33.200Z,6.50
2019-03-15T21:45:05.884Z,6.30
2019-03-15T21:47:38.279Z,6.10
2019-03-15T21:50:12.858Z,6.00
2019-03-15T21:52:45.917Z,5.80
2019-03-15T21:55:18.926Z,5.70
2019-03-15T21:57:51.658Z,5.60
2019-03-15T22:00:24.408Z,5.50
2019-03-15T22:02:57.126Z,5.50
2019-03-15T22:05:30.519Z,5.40
2019-03-15T22:08:03.562Z,5.30
2019-03-15T22:10:36.020Z,5.20
2019-03-15T22:13:09.017Z,5.20
2019-03-15T22:15:41.955Z,5.10
2019-03-15T22:18:14.844Z,5.10
2019-03-15T22:20:47.722Z,5.10
2019-03-15T22:23:20.094Z,5.20
2019-03-15T22:25:52.755Z,5.20
2019-03-15T22:28:25.217Z,5.10
2019-03-15T22:30:57.728Z,5.10
2019-03-15T22:33:30.607Z,5.10
2019-03-15T22:36:03.115Z,5.10
2019-03-15T22:38:35.968Z,5.00
2019-03-15T22:41:09.556Z,4.90
2019-03-15T22:43:42.120Z,4.90
2019-03-15T22:46:14.711Z,4.80
2019-03-15T22:48:47.046Z,4.80
2019-03-15T22:51:19.643Z,4.80
2019-03-15T22:53:52.645Z,4.80
2019-03-15T22:56:25.447Z,4.80
2019-03-15T22:58:58.022Z,4.80
2019-03-15T23:01:33.083Z,4.70
2019-03-15T23:04:05.997Z,4.50
2019-03-15T23:06:39.301Z,4.40
2019-03-15T23:09:12.686Z,4.30
2019-03-15T23:11:45.609Z,4.20
2019-03-15T23:14:20.449Z,4.20
2019-03-15T23:16:53.787Z,4.10
2019-03-15T23:19:26.956Z,4.10
2019-03-15T23:22:00.851Z,4.00
2019-03-15T23:24:33.687Z,4.00
2019-03-15T23:27:06.841Z,4.00
2019-03-15T23:29:41.143Z,4.00
2019-03-15T23:32:15.557Z,3.90
2019-03-15T23:34:48.122Z,3.90
2019-03-15T23:37:20.739Z,3.80
2019-03-15T23:39:54.993Z,3.80
2019-03-15T23:42:27.711Z,3.70
2019-03-15T23:45:01.060Z,3.60
2019-03-15T23:47:34.714Z,3.60
2019-03-15T23:50:08.195Z,3.70
2019-03-15T23:52:41.092Z,3.70
2019-03-15T23:55:15.370Z,3.70
2019-03-15T23:57:50.361Z,3.70
